sensor_id;sensor_type;location;lat;lon;timestamp;temperature;humidity
69208;SHT31;56321;47.662;8.878;2023-03-14T00:01:37;11.88;73.27
69208;SHT31;56321;47.662;8.878;2023-03-14T00:04:06;11.93;73.19
69208;SHT31;56321;47.662;8.878;2023-03-14T00:06:31;11.88;73.06
69208;SHT31;56321;47.662;8.878;2023-03-14T00:08:58;11.91;73.09
69208;SHT31;56321;47.662;8.878;2023-03-14T00:11:23;11.90;73.01
69208;SHT31;56321;47.662;8.878;2023-03-14T00:13:50;11.88;73.10
69208;SHT31;56321;47.662;8.878;2023-03-14T00:16:15;11.91;73.05
69208;SHT31;56321;47.662;8.878;2023-03-14T00:18:41;11.90;72.94
69208;SHT31;56321;47.662;8.878;2023-03-14T00:21:08;11.91;72.86
69208;SHT31;56321;47.662;8.878;2023-03-14T00:23:36;11.90;72.46
69208;SHT31;56321;47.662;8.878;2023-03-14T00:26:04;11.90;72.99
69208;SHT31;56321;47.662;8.878;2023-03-14T00:28:30;11.87;72.65
69208;SHT31;56321;47.662;8.878;2023-03-14T00:30:56;11.84;72.77
69208;SHT31;56321;47.662;8.878;2023-03-14T00:33:22;11.81;72.74
69208;SHT31;56321;47.662;8.878;2023-03-14T00:36:01;11.73;73.06
69208;SHT31;56321;47.662;8.878;2023-03-14T00:38:27;11.70;72.98
69208;SHT31;56321;47.662;8.878;2023-03-14T00:40:53;11.69;73.35
69208;SHT31;56321;47.662;8.878;2023-03-14T00:43:20;11.67;73.29
69208;SHT31;56321;47.662;8.878;2023-03-14T00:45:52;11.67;73.08
69208;SHT31;56321;47.662;8.878;2023-03-14T00:48:19;11.66;72.96
69208;SHT31;56321;47.662;8.878;2023-03-14T00:50:45;11.59;72.87
69208;SHT31;56321;47.662;8.878;2023-03-14T00:53:10;11.56;72.87
69208;SHT31;56321;47.662;8.878;2023-03-14T00:55:37;11.50;72.82
69208;SHT31;56321;47.662;8.878;2023-03-14T00:58:03;11.43;72.94
69208;SHT31;56321;47.662;8.878;2023-03-14T01:00:28;11.36;73.32
69208;SHT31;56321;47.662;8.878;2023-03-14T01:02:53;11.38;73.37
69208;SHT31;56321;47.662;8.878;2023-03-14T01:05:19;11.39;73.30
69208;SHT31;56321;47.662;8.878;2023-03-14T01:07:44;11.38;72.90
69208;SHT31;56321;47.662;8.878;2023-03-14T01:10:10;11.36;72.92
69208;SHT31;56321;47.662;8.878;2023-03-14T01:12:35;11.42;73.13
69208;SHT31;56321;47.662;8.878;2023-03-14T01:15:00;11.39;73.05
69208;SHT31;56321;47.662;8.878;2023-03-14T01:17:26;11.39;72.90
69208;SHT31;56321;47.662;8.878;2023-03-14T01:19:51;11.39;72.73
69208;SHT31;56321;47.662;8.878;2023-03-14T01:22:16;11.35;72.57
69208;SHT31;56321;47.662;8.878;2023-03-14T01:24:42;11.33;72.84
69208;SHT31;56321;47.662;8.878;2023-03-14T01:27:07;11.31;72.72
69208;SHT31;56321;47.662;8.878;2023-03-14T01:29:32;11.29;72.69
69208;SHT31;56321;47.662;8.878;2023-03-14T01:31:58;11.29;72.66
69208;SHT31;56321;47.662;8.878;2023-03-14T01:34:23;11.26;72.42
69208;SHT31;56321;47.662;8.878;2023-03-14T01:36:49;11.23;72.45
69208;SHT31;56321;47.662;8.878;2023-03-14T01:39:14;11.19;72.56
69208;SHT31;56321;47.662;8.878;2023-03-14T01:41:40;11.18;72.48
69208;SHT31;56321;47.662;8.878;2023-03-14T01:44:09;11.16;72.20
69208;SHT31;56321;47.662;8.878;2023-03-14T01:46:43;11.15;72.45
69208;SHT31;56321;47.662;8.878;2023-03-14T01:49:29;11.18;72.41
69208;SHT31;56321;47.662;8.878;2023-03-14T01:52:18;11.12;72.76
69208;SHT31;56321;47.662;8.878;2023-03-14T01:55:03;11.10;71.91
69208;SHT31;56321;47.662;8.878;2023-03-14T01:57:44;11.01;71.97
69208;SHT31;56321;47.662;8.878;2023-03-14T02:00:16;11.02;71.55
69208;SHT31;56321;47.662;8.878;2023-03-14T02:02:50;11.04;71.58
69208;SHT31;56321;47.662;8.878;2023-03-14T02:05:21;11.05;71.28
69208;SHT31;56321;47.662;8.878;2023-03-14T02:07:59;11.04;71.10
69208;SHT31;56321;47.662;8.878;2023-03-14T02:10:29;11.02;71.00
69208;SHT31;56321;47.662;8.878;2023-03-14T02:12:56;10.98;70.79
69208;SHT31;56321;47.662;8.878;2023-03-14T02:15:23;10.98;70.69
69208;SHT31;56321;47.662;8.878;2023-03-14T02:17:48;10.98;70.56
69208;SHT31;56321;47.662;8.878;2023-03-14T02:20:50;10.95;70.41
69208;SHT31;56321;47.662;8.878;2023-03-14T02:24:12;10.93;70.39
69208;SHT31;56321;47.662;8.878;2023-03-14T02:26:15;10.93;70.65
69208;SHT31;56321;47.662;8.878;2023-03-14T02:28:41;10.95;70.43
69208;SHT31;56321;47.662;8.878;2023-03-14T02:31:07;10.94;70.02
69208;SHT31;56321;47.662;8.878;2023-03-14T02:33:35;10.91;69.83
69208;SHT31;56321;47.662;8.878;2023-03-14T02:36:04;10.93;69.76
69208;SHT31;56321;47.662;8.878;2023-03-14T02:38:47;10.87;69.74
69208;SHT31;56321;47.662;8.878;2023-03-14T02:41:16;10.84;69.31
69208;SHT31;56321;47.662;8.878;2023-03-14T02:43:41;10.83;69.43
69208;SHT31;56321;47.662;8.878;2023-03-14T02:46:08;10.77;69.84
69208;SHT31;56321;47.662;8.878;2023-03-14T02:49:02;10.78;70.05
69208;SHT31;56321;47.662;8.878;2023-03-14T02:51:28;10.80;69.33
69208;SHT31;56321;47.662;8.878;2023-03-14T02:53:54;10.77;69.12
69208;SHT31;56321;47.662;8.878;2023-03-14T02:56:19;10.78;69.18
69208;SHT31;56321;47.662;8.878;2023-03-14T02:58:44;10.77;69.39
69208;SHT31;56321;47.662;8.878;2023-03-14T03:01:10;10.73;69.11
69208;SHT31;56321;47.662;8.878;2023-03-14T03:03:35;10.74;69.27
69208;SHT31;56321;47.662;8.878;2023-03-14T03:06:00;10.73;69.19
69208;SHT31;56321;47.662;8.878;2023-03-14T03:08:26;10.73;69.34
69208;SHT31;56321;47.662;8.878;2023-03-14T03:10:53;10.73;69.37
69208;SHT31;56321;47.662;8.878;2023-03-14T03:13:18;10.73;69.24
69208;SHT31;56321;47.662;8.878;2023-03-14T03:15:44;10.71;68.95
69208;SHT31;56321;47.662;8.878;2023-03-14T03:18:09;10.73;69.01
69208;SHT31;56321;47.662;8.878;2023-03-14T03:20:35;10.71;68.68
69208;SHT31;56321;47.662;8.878;2023-03-14T03:23:00;10.71;68.98
69208;SHT31;56321;47.662;8.878;2023-03-14T03:25:26;10.73;69.06
69208;SHT31;56321;47.662;8.878;2023-03-14T03:27:52;10.71;68.91
69208;SHT31;56321;47.662;8.878;2023-03-14T03:30:17;10.73;68.75
69208;SHT31;56321;47.662;8.878;2023-03-14T03:32:43;10.68;68.56
69208;SHT31;56321;47.662;8.878;2023-03-14T03:35:09;10.70;68.86
69208;SHT31;56321;47.662;8.878;2023-03-14T03:37:34;10.68;68.69
69208;SHT31;56321;47.662;8.878;2023-03-14T03:40:00;10.67;68.53
69208;SHT31;56321;47.662;8.878;2023-03-14T03:42:28;10.67;68.77
69208;SHT31;56321;47.662;8.878;2023-03-14T03:44:54;10.68;68.67
69208;SHT31;56321;47.662;8.878;2023-03-14T03:47:19;10.66;68.62
69208;SHT31;56321;47.662;8.878;2023-03-14T03:49:44;10.67;68.64
69208;SHT31;56321;47.662;8.878;2023-03-14T03:52:10;10.64;68.54
69208;SHT31;56321;47.662;8.878;2023-03-14T03:54:35;10.59;68.66
69208;SHT31;56321;47.662;8.878;2023-03-14T03:57:01;10.59;68.76
69208;SHT31;56321;47.662;8.878;2023-03-14T03:59:26;10.56;68.50
69208;SHT31;56321;47.662;8.878;2023-03-14T04:01:52;10.57;68.30
69208;SHT31;56321;47.662;8.878;2023-03-14T04:04:17;10.56;68.65
69208;SHT31;56321;47.662;8.878;2023-03-14T04:06:42;10.57;68.70
69208;SHT31;56321;47.662;8.878;2023-03-14T04:09:09;10.57;68.59
69208;SHT31;56321;47.662;8.878;2023-03-14T04:11:35;10.59;68.71
69208;SHT31;56321;47.662;8.878;2023-03-14T04:14:00;10.59;68.57
69208;SHT31;56321;47.662;8.878;2023-03-14T04:16:26;10.56;68.47
69208;SHT31;56321;47.662;8.878;2023-03-14T04:18:51;10.60;68.63
69208;SHT31;56321;47.662;8.878;2023-03-14T04:21:17;10.59;68.69
69208;SHT31;56321;47.662;8.878;2023-03-14T04:23:42;10.60;68.48
69208;SHT31;56321;47.662;8.878;2023-03-14T04:26:07;10.60;68.37
69208;SHT31;56321;47.662;8.878;2023-03-14T04:28:33;10.60;68.45
69208;SHT31;56321;47.662;8.878;2023-03-14T04:30:58;10.63;68.27
69208;SHT31;56321;47.662;8.878;2023-03-14T04:33:24;10.61;68.42
69208;SHT31;56321;47.662;8.878;2023-03-14T04:35:53;10.61;68.21
69208;SHT31;56321;47.662;8.878;2023-03-14T04:38:19;10.60;68.07
69208;SHT31;56321;47.662;8.878;2023-03-14T04:40:44;10.61;68.07
69208;SHT31;56321;47.662;8.878;2023-03-14T04:43:10;10.57;68.06
69208;SHT31;56321;47.662;8.878;2023-03-14T04:45:36;10.60;68.14
69208;SHT31;56321;47.662;8.878;2023-03-14T04:48:01;10.59;68.09
69208;SHT31;56321;47.662;8.878;2023-03-14T04:50:27;10.59;68.14
69208;SHT31;56321;47.662;8.878;2023-03-14T04:52:52;10.60;68.11
69208;SHT31;56321;47.662;8.878;2023-03-14T04:55:17;10.59;68.10
69208;SHT31;56321;47.662;8.878;2023-03-14T04:57:43;10.64;68.11
69208;SHT31;56321;47.662;8.878;2023-03-14T05:00:09;10.61;67.86
69208;SHT31;56321;47.662;8.878;2023-03-14T05:02:34;10.63;67.61
69208;SHT31;56321;47.662;8.878;2023-03-14T05:05:00;10.63;67.74
69208;SHT31;56321;47.662;8.878;2023-03-14T05:07:25;10.63;67.65
69208;SHT31;56321;47.662;8.878;2023-03-14T05:09:51;10.61;67.39
69208;SHT31;56321;47.662;8.878;2023-03-14T05:12:19;10.61;67.30
69208;SHT31;56321;47.662;8.878;2023-03-14T05:14:44;10.60;67.30
69208;SHT31;56321;47.662;8.878;2023-03-14T05:17:09;10.59;67.02
69208;SHT31;56321;47.662;8.878;2023-03-14T05:19:35;10.60;66.95
69208;SHT31;56321;47.662;8.878;2023-03-14T05:22:00;10.57;67.05
69208;SHT31;56321;47.662;8.878;2023-03-14T05:24:26;10.57;67.07
69208;SHT31;56321;47.662;8.878;2023-03-14T05:26:51;10.56;66.82
69208;SHT31;56321;47.662;8.878;2023-03-14T05:29:16;10.57;67.13
69208;SHT31;56321;47.662;8.878;2023-03-14T05:31:42;10.56;67.27
69208;SHT31;56321;47.662;8.878;2023-03-14T05:34:07;10.53;67.05
69208;SHT31;56321;47.662;8.878;2023-03-14T05:36:32;10.54;67.24
69208;SHT31;56321;47.662;8.878;2023-03-14T05:38:57;10.53;66.99
69208;SHT31;56321;47.662;8.878;2023-03-14T05:41:23;10.54;67.00
69208;SHT31;56321;47.662;8.878;2023-03-14T05:43:48;10.54;67.19
69208;SHT31;56321;47.662;8.878;2023-03-14T05:46:13;10.57;67.02
69208;SHT31;56321;47.662;8.878;2023-03-14T05:48:39;10.56;67.33
69208;SHT31;56321;47.662;8.878;2023-03-14T05:51:04;10.52;66.88
69208;SHT31;56321;47.662;8.878;2023-03-14T05:53:30;10.54;66.93
69208;SHT31;56321;47.662;8.878;2023-03-14T05:55:56;10.53;66.69
69208;SHT31;56321;47.662;8.878;2023-03-14T05:58:21;10.53;67.03
69208;SHT31;56321;47.662;8.878;2023-03-14T06:00:47;10.52;67.13
69208;SHT31;56321;47.662;8.878;2023-03-14T06:03:12;10.54;67.30
69208;SHT31;56321;47.662;8.878;2023-03-14T06:05:38;10.52;66.83
69208;SHT31;56321;47.662;8.878;2023-03-14T06:08:03;10.53;66.94
69208;SHT31;56321;47.662;8.878;2023-03-14T06:10:29;10.53;66.93
69208;SHT31;56321;47.662;8.878;2023-03-14T06:12:54;10.54;67.05
69208;SHT31;56321;47.662;8.878;2023-03-14T06:15:20;10.52;67.13
69208;SHT31;56321;47.662;8.878;2023-03-14T06:17:45;10.52;67.06
69208;SHT31;56321;47.662;8.878;2023-03-14T06:20:11;10.49;67.37
69208;SHT31;56321;47.662;8.878;2023-03-14T06:22:36;10.52;67.15
69208;SHT31;56321;47.662;8.878;2023-03-14T06:25:03;10.52;67.30
69208;SHT31;56321;47.662;8.878;2023-03-14T06:27:29;10.53;67.13
69208;SHT31;56321;47.662;8.878;2023-03-14T06:29:54;10.56;67.43
69208;SHT31;56321;47.662;8.878;2023-03-14T06:32:19;10.56;67.36
69208;SHT31;56321;47.662;8.878;2023-03-14T06:34:45;10.57;66.72
69208;SHT31;56321;47.662;8.878;2023-03-14T06:37:11;10.56;66.67
69208;SHT31;56321;47.662;8.878;2023-03-14T06:39:36;10.60;66.56
69208;SHT31;56321;47.662;8.878;2023-03-14T06:42:03;10.61;66.96
69208;SHT31;56321;47.662;8.878;2023-03-14T06:44:29;10.63;67.04
69208;SHT31;56321;47.662;8.878;2023-03-14T06:46:54;10.64;67.33
69208;SHT31;56321;47.662;8.878;2023-03-14T06:49:20;10.66;66.76
69208;SHT31;56321;47.662;8.878;2023-03-14T06:51:45;10.66;66.52
69208;SHT31;56321;47.662;8.878;2023-03-14T06:54:10;10.67;66.73
69208;SHT31;56321;47.662;8.878;2023-03-14T06:56:36;10.68;66.20
69208;SHT31;56321;47.662;8.878;2023-03-14T06:59:01;10.67;66.48
69208;SHT31;56321;47.662;8.878;2023-03-14T07:01:28;10.70;66.03
69208;SHT31;56321;47.662;8.878;2023-03-14T07:03:54;10.68;65.88
69208;SHT31;56321;47.662;8.878;2023-03-14T07:06:21;10.68;66.02
69208;SHT31;56321;47.662;8.878;2023-03-14T07:08:46;10.67;66.66
69208;SHT31;56321;47.662;8.878;2023-03-14T07:11:12;10.71;66.15
69208;SHT31;56321;47.662;8.878;2023-03-14T07:13:38;10.68;66.15
69208;SHT31;56321;47.662;8.878;2023-03-14T07:16:05;10.77;66.16
69208;SHT31;56321;47.662;8.878;2023-03-14T07:18:30;10.80;66.02
69208;SHT31;56321;47.662;8.878;2023-03-14T07:20:56;10.84;65.87
69208;SHT31;56321;47.662;8.878;2023-03-14T07:23:21;10.80;65.81
69208;SHT31;56321;47.662;8.878;2023-03-14T07:25:47;10.80;65.71
69208;SHT31;56321;47.662;8.878;2023-03-14T07:28:12;10.77;65.46
69208;SHT31;56321;47.662;8.878;2023-03-14T07:30:37;10.80;65.53
69208;SHT31;56321;47.662;8.878;2023-03-14T07:33:03;10.84;65.63
69208;SHT31;56321;47.662;8.878;2023-03-14T07:35:28;10.91;65.40
69208;SHT31;56321;47.662;8.878;2023-03-14T07:37:53;10.94;65.24
69208;SHT31;56321;47.662;8.878;2023-03-14T07:40:19;11.00;64.86
69208;SHT31;56321;47.662;8.878;2023-03-14T07:42:44;11.08;65.23
69208;SHT31;56321;47.662;8.878;2023-03-14T07:45:10;11.15;65.04
69208;SHT31;56321;47.662;8.878;2023-03-14T07:47:36;11.31;64.88
69208;SHT31;56321;47.662;8.878;2023-03-14T07:50:03;11.43;64.96
69208;SHT31;56321;47.662;8.878;2023-03-14T07:52:29;11.60;64.86
69208;SHT31;56321;47.662;8.878;2023-03-14T07:54:54;11.71;64.64
69208;SHT31;56321;47.662;8.878;2023-03-14T07:57:19;11.80;64.23
69208;SHT31;56321;47.662;8.878;2023-03-14T07:59:45;11.90;64.58
69208;SHT31;56321;47.662;8.878;2023-03-14T08:02:11;11.95;64.01
69208;SHT31;56321;47.662;8.878;2023-03-14T08:04:37;12.04;63.67
69208;SHT31;56321;47.662;8.878;2023-03-14T08:07:03;12.11;63.58
69208;SHT31;56321;47.662;8.878;2023-03-14T08:09:28;12.16;63.35
69208;SHT31;56321;47.662;8.878;2023-03-14T08:11:54;12.21;63.07
69208;SHT31;56321;47.662;8.878;2023-03-14T08:14:19;12.29;63.01
69208;SHT31;56321;47.662;8.878;2023-03-14T08:16:45;12.52;63.09
69208;SHT31;56321;47.662;8.878;2023-03-14T08:19:10;12.76;62.73
69208;SHT31;56321;47.662;8.878;2023-03-14T08:21:36;13.14;62.09
69208;SHT31;56321;47.662;8.878;2023-03-14T08:24:02;13.57;61.41
69208;SHT31;56321;47.662;8.878;2023-03-14T08:26:27;14.03;61.32
69208;SHT31;56321;47.662;8.878;2023-03-14T08:28:52;14.79;60.47
69208;SHT31;56321;47.662;8.878;2023-03-14T08:31:18;15.58;57.87
69208;SHT31;56321;47.662;8.878;2023-03-14T08:33:43;16.05;56.26
69208;SHT31;56321;47.662;8.878;2023-03-14T08:36:09;16.37;53.75
69208;SHT31;56321;47.662;8.878;2023-03-14T08:38:34;17.04;53.26
69208;SHT31;56321;47.662;8.878;2023-03-14T08:41:01;18.08;52.26
69208;SHT31;56321;47.662;8.878;2023-03-14T08:43:27;18.87;50.23
69208;SHT31;56321;47.662;8.878;2023-03-14T08:45:57;19.25;48.42
69208;SHT31;56321;47.662;8.878;2023-03-14T08:48:23;19.04;47.67
69208;SHT31;56321;47.662;8.878;2023-03-14T08:50:48;18.42;47.54
69208;SHT31;56321;47.662;8.878;2023-03-14T08:53:14;17.66;48.23
69208;SHT31;56321;47.662;8.878;2023-03-14T08:55:39;17.14;49.62
69208;SHT31;56321;47.662;8.878;2023-03-14T08:58:04;17.16;51.03
69208;SHT31;56321;47.662;8.878;2023-03-14T09:00:30;17.65;50.11
69208;SHT31;56321;47.662;8.878;2023-03-14T09:02:55;18.08;49.60
69208;SHT31;56321;47.662;8.878;2023-03-14T09:05:20;18.63;48.53
69208;SHT31;56321;47.662;8.878;2023-03-14T09:07:45;19.08;47.13
69208;SHT31;56321;47.662;8.878;2023-03-14T09:10:11;19.78;46.87
69208;SHT31;56321;47.662;8.878;2023-03-14T09:12:37;20.30;45.00
69208;SHT31;56321;47.662;8.878;2023-03-14T09:15:03;20.01;44.10
69208;SHT31;56321;47.662;8.878;2023-03-14T09:17:28;19.25;44.44
69208;SHT31;56321;47.662;8.878;2023-03-14T09:19:53;18.29;45.59
69208;SHT31;56321;47.662;8.878;2023-03-14T09:22:19;17.47;46.93
69208;SHT31;56321;47.662;8.878;2023-03-14T09:24:45;16.85;48.12
69208;SHT31;56321;47.662;8.878;2023-03-14T09:27:11;16.91;49.02
69208;SHT31;56321;47.662;8.878;2023-03-14T09:29:36;17.70;49.10
69208;SHT31;56321;47.662;8.878;2023-03-14T09:32:01;18.46;47.54
69208;SHT31;56321;47.662;8.878;2023-03-14T09:34:27;19.18;46.03
69208;SHT31;56321;47.662;8.878;2023-03-14T09:36:52;19.27;45.20
69208;SHT31;56321;47.662;8.878;2023-03-14T09:39:17;19.25;44.57
69208;SHT31;56321;47.662;8.878;2023-03-14T09:41:45;19.04;44.91
69208;SHT31;56321;47.662;8.878;2023-03-14T09:44:15;18.52;45.08
69208;SHT31;56321;47.662;8.878;2023-03-14T09:46:43;17.77;45.64
69208;SHT31;56321;47.662;8.878;2023-03-14T09:49:21;17.01;45.72
69208;SHT31;56321;47.662;8.878;2023-03-14T09:51:50;16.39;47.53
69208;SHT31;56321;47.662;8.878;2023-03-14T09:54:47;15.75;48.82
69208;SHT31;56321;47.662;8.878;2023-03-14T09:57:16;15.37;49.79
69208;SHT31;56321;47.662;8.878;2023-03-14T09:59:45;15.04;50.13
69208;SHT31;56321;47.662;8.878;2023-03-14T10:02:32;14.65;51.14
69208;SHT31;56321;47.662;8.878;2023-03-14T10:04:58;14.38;51.53
69208;SHT31;56321;47.662;8.878;2023-03-14T10:07:28;14.17;52.40
69208;SHT31;56321;47.662;8.878;2023-03-14T10:09:55;14.03;52.34
69208;SHT31;56321;47.662;8.878;2023-03-14T10:12:30;13.86;53.42
69208;SHT31;56321;47.662;8.878;2023-03-14T10:14:56;13.72;52.51
69208;SHT31;56321;47.662;8.878;2023-03-14T10:17:21;13.58;52.87
69208;SHT31;56321;47.662;8.878;2023-03-14T10:19:58;13.48;53.37
69208;SHT31;56321;47.662;8.878;2023-03-14T10:22:29;13.45;53.40
69208;SHT31;56321;47.662;8.878;2023-03-14T10:24:57;13.35;53.75
69208;SHT31;56321;47.662;8.878;2023-03-14T10:27:33;13.28;54.23
69208;SHT31;56321;47.662;8.878;2023-03-14T10:30:02;13.24;54.29
69208;SHT31;56321;47.662;8.878;2023-03-14T10:32:36;13.14;54.81
69208;SHT31;56321;47.662;8.878;2023-03-14T10:35:06;13.03;54.82
69208;SHT31;56321;47.662;8.878;2023-03-14T10:37:32;12.90;54.93
69208;SHT31;56321;47.662;8.878;2023-03-14T10:40:01;12.76;55.71
69208;SHT31;56321;47.662;8.878;2023-03-14T10:42:39;12.66;56.63
69208;SHT31;56321;47.662;8.878;2023-03-14T10:45:15;12.59;56.91
69208;SHT31;56321;47.662;8.878;2023-03-14T10:47:51;12.52;57.48
69208;SHT31;56321;47.662;8.878;2023-03-14T10:50:27;12.39;58.40
69208;SHT31;56321;47.662;8.878;2023-03-14T10:52:53;12.28;57.80
69208;SHT31;56321;47.662;8.878;2023-03-14T10:55:19;12.17;58.38
69208;SHT31;56321;47.662;8.878;2023-03-14T10:57:44;12.11;58.64
69208;SHT31;56321;47.662;8.878;2023-03-14T11:00:21;12.10;58.93
69208;SHT31;56321;47.662;8.878;2023-03-14T11:02:59;12.10;58.96
69208;SHT31;56321;47.662;8.878;2023-03-14T11:05:35;12.10;59.44
69208;SHT31;56321;47.662;8.878;2023-03-14T11:08:31;12.11;59.48
69208;SHT31;56321;47.662;8.878;2023-03-14T11:11:19;12.08;59.60
69208;SHT31;56321;47.662;8.878;2023-03-14T11:14:27;12.05;59.18
69208;SHT31;56321;47.662;8.878;2023-03-14T11:17:14;12.10;60.19
69208;SHT31;56321;47.662;8.878;2023-03-14T11:28:09;12.10;60.92
69208;SHT31;56321;47.662;8.878;2023-03-14T11:30:54;11.98;61.18
69208;SHT31;56321;47.662;8.878;2023-03-14T11:33:24;11.86;61.18
69208;SHT31;56321;47.662;8.878;2023-03-14T11:35:58;11.79;61.14
69208;SHT31;56321;47.662;8.878;2023-03-14T11:38:30;11.69;61.45
69208;SHT31;56321;47.662;8.878;2023-03-14T11:40:57;11.63;61.92
69208;SHT31;56321;47.662;8.878;2023-03-14T11:43:30;11.67;61.92
69208;SHT31;56321;47.662;8.878;2023-03-14T11:46:17;11.60;62.78
69208;SHT31;56321;47.662;8.878;2023-03-14T11:48:59;11.40;62.01
69208;SHT31;56321;47.662;8.878;2023-03-14T11:51:36;11.16;62.92
69208;SHT31;56321;47.662;8.878;2023-03-14T11:56:39;10.91;64.27
69208;SHT31;56321;47.662;8.878;2023-03-14T11:59:16;10.85;64.33
69208;SHT31;56321;47.662;8.878;2023-03-14T12:01:51;10.68;64.58
69208;SHT31;56321;47.662;8.878;2023-03-14T12:06:56;10.40;65.87
69208;SHT31;56321;47.662;8.878;2023-03-14T12:09:23;10.30;66.56
69208;SHT31;56321;47.662;8.878;2023-03-14T12:11:52;10.25;66.38
69208;SHT31;56321;47.662;8.878;2023-03-14T12:14:28;10.19;66.67
69208;SHT31;56321;47.662;8.878;2023-03-14T12:19:31;10.10;66.92
69208;SHT31;56321;47.662;8.878;2023-03-14T12:22:21;10.06;68.70
69208;SHT31;56321;47.662;8.878;2023-03-14T12:24:52;10.08;67.74
69208;SHT31;56321;47.662;8.878;2023-03-14T12:27:41;10.05;67.85
69208;SHT31;56321;47.662;8.878;2023-03-14T12:30:18;10.08;68.23
69208;SHT31;56321;47.662;8.878;2023-03-14T12:35:57;10.08;68.44
69208;SHT31;56321;47.662;8.878;2023-03-14T12:38:56;10.15;68.99
69208;SHT31;56321;47.662;8.878;2023-03-14T12:41:28;10.28;68.01
69208;SHT31;56321;47.662;8.878;2023-03-14T12:43:54;10.43;68.07
69208;SHT31;56321;47.662;8.878;2023-03-14T12:46:26;10.56;67.69
69208;SHT31;56321;47.662;8.878;2023-03-14T12:51:38;10.59;67.93
69208;SHT31;56321;47.662;8.878;2023-03-14T12:54:16;10.63;67.88
69208;SHT31;56321;47.662;8.878;2023-03-14T12:59:56;10.80;67.11
69208;SHT31;56321;47.662;8.878;2023-03-14T13:10:28;10.71;67.03
69208;SHT31;56321;47.662;8.878;2023-03-14T13:15:43;10.75;66.87
69208;SHT31;56321;47.662;8.878;2023-03-14T13:18:18;10.81;66.90
69208;SHT31;56321;47.662;8.878;2023-03-14T13:20:52;10.90;66.62
69208;SHT31;56321;47.662;8.878;2023-03-14T13:23:26;10.95;65.74
69208;SHT31;56321;47.662;8.878;2023-03-14T13:25:52;10.93;65.46
69208;SHT31;56321;47.662;8.878;2023-03-14T13:28:18;10.94;65.62
69208;SHT31;56321;47.662;8.878;2023-03-14T13:30:46;10.93;65.58
69208;SHT31;56321;47.662;8.878;2023-03-14T13:33:15;11.04;65.66
69208;SHT31;56321;47.662;8.878;2023-03-14T13:35:44;11.21;65.65
69208;SHT31;56321;47.662;8.878;2023-03-14T13:38:17;11.44;66.01
69208;SHT31;56321;47.662;8.878;2023-03-14T13:40:44;11.65;65.81
69208;SHT31;56321;47.662;8.878;2023-03-14T13:43:25;11.80;65.23
69208;SHT31;56321;47.662;8.878;2023-03-14T13:45:55;11.93;64.51
69208;SHT31;56321;47.662;8.878;2023-03-14T13:48:22;11.94;60.49
69208;SHT31;56321;47.662;8.878;2023-03-14T13:50:53;11.88;58.94
69208;SHT31;56321;47.662;8.878;2023-03-14T13:53:19;11.80;58.21
69208;SHT31;56321;47.662;8.878;2023-03-14T13:55:44;11.69;57.68
69208;SHT31;56321;47.662;8.878;2023-03-14T13:58:28;11.50;55.78
69208;SHT31;56321;47.662;8.878;2023-03-14T14:01:00;11.35;55.45
69208;SHT31;56321;47.662;8.878;2023-03-14T14:03:27;11.31;57.24
69208;SHT31;56321;47.662;8.878;2023-03-14T14:05:55;11.40;57.61
69208;SHT31;56321;47.662;8.878;2023-03-14T14:08:20;11.46;56.76
69208;SHT31;56321;47.662;8.878;2023-03-14T14:10:47;11.50;56.98
69208;SHT31;56321;47.662;8.878;2023-03-14T14:13:15;11.59;56.46
69208;SHT31;56321;47.662;8.878;2023-03-14T14:15:45;11.56;55.98
69208;SHT31;56321;47.662;8.878;2023-03-14T14:18:14;11.53;55.71
69208;SHT31;56321;47.662;8.878;2023-03-14T14:20:42;11.56;55.95
69208;SHT31;56321;47.662;8.878;2023-03-14T14:23:14;11.58;55.49
69208;SHT31;56321;47.662;8.878;2023-03-14T14:25:42;11.56;55.16
69208;SHT31;56321;47.662;8.878;2023-03-14T14:30:40;11.56;55.82
69208;SHT31;56321;47.662;8.878;2023-03-14T14:33:20;11.60;55.01
69208;SHT31;56321;47.662;8.878;2023-03-14T14:35:55;11.63;54.68
69208;SHT31;56321;47.662;8.878;2023-03-14T14:38:21;11.63;53.89
69208;SHT31;56321;47.662;8.878;2023-03-14T14:40:49;11.56;53.49
69208;SHT31;56321;47.662;8.878;2023-03-14T14:43:20;11.46;52.63
69208;SHT31;56321;47.662;8.878;2023-03-14T14:45:49;11.38;53.17
69208;SHT31;56321;47.662;8.878;2023-03-14T14:48:19;11.39;53.43
69208;SHT31;56321;47.662;8.878;2023-03-14T14:53:38;11.35;51.92
69208;SHT31;56321;47.662;8.878;2023-03-14T14:56:16;11.33;52.18
69208;SHT31;56321;47.662;8.878;2023-03-14T14:58:44;11.32;52.62
69208;SHT31;56321;47.662;8.878;2023-03-14T15:01:11;11.31;51.85
69208;SHT31;56321;47.662;8.878;2023-03-14T15:03:42;11.19;52.11
69208;SHT31;56321;47.662;8.878;2023-03-14T15:06:10;11.07;52.12
69208;SHT31;56321;47.662;8.878;2023-03-14T15:08:37;11.00;52.85
69208;SHT31;56321;47.662;8.878;2023-03-14T15:11:02;10.98;53.39
69208;SHT31;56321;47.662;8.878;2023-03-14T15:13:27;11.01;53.64
69208;SHT31;56321;47.662;8.878;2023-03-14T15:15:53;11.08;53.94
69208;SHT31;56321;47.662;8.878;2023-03-14T15:18:23;11.16;53.62
69208;SHT31;56321;47.662;8.878;2023-03-14T15:20:49;11.25;53.73
69208;SHT31;56321;47.662;8.878;2023-03-14T15:23:16;11.25;53.53
69208;SHT31;56321;47.662;8.878;2023-03-14T15:25:42;11.19;53.76
69208;SHT31;56321;47.662;8.878;2023-03-14T15:28:21;11.16;53.95
69208;SHT31;56321;47.662;8.878;2023-03-14T15:30:48;11.16;54.38
69208;SHT31;56321;47.662;8.878;2023-03-14T15:33:14;11.15;54.72
69208;SHT31;56321;47.662;8.878;2023-03-14T15:35:39;11.14;54.73
69208;SHT31;56321;47.662;8.878;2023-03-14T15:38:10;11.15;55.03
69208;SHT31;56321;47.662;8.878;2023-03-14T15:40:35;11.22;54.59
69208;SHT31;56321;47.662;8.878;2023-03-14T15:43:01;11.18;53.97
69208;SHT31;56321;47.662;8.878;2023-03-14T15:45:26;11.18;54.23
69208;SHT31;56321;47.662;8.878;2023-03-14T15:47:51;11.12;54.26
69208;SHT31;56321;47.662;8.878;2023-03-14T15:50:17;11.14;54.77
69208;SHT31;56321;47.662;8.878;2023-03-14T15:52:44;11.12;55.04
69208;SHT31;56321;47.662;8.878;2023-03-14T15:55:09;11.16;55.28
69208;SHT31;56321;47.662;8.878;2023-03-14T15:57:34;11.14;54.44
69208;SHT31;56321;47.662;8.878;2023-03-14T16:00:00;11.08;54.56
69208;SHT31;56321;47.662;8.878;2023-03-14T16:02:25;11.02;55.04
69208;SHT31;56321;47.662;8.878;2023-03-14T16:04:51;11.01;54.94
69208;SHT31;56321;47.662;8.878;2023-03-14T16:07:17;10.97;54.75
69208;SHT31;56321;47.662;8.878;2023-03-14T16:09:42;10.94;54.48
69208;SHT31;56321;47.662;8.878;2023-03-14T16:12:08;10.88;54.26
69208;SHT31;56321;47.662;8.878;2023-03-14T16:14:33;10.81;54.20
69208;SHT31;56321;47.662;8.878;2023-03-14T16:16:59;10.77;54.21
69208;SHT31;56321;47.662;8.878;2023-03-14T16:19:25;10.74;54.11